VAM | Vabird-VBD

Virtual Vabird! Aerolínea Virtual de habla hispana, desde 2011




 INFORMACIÓN METAR y TAF
METAR FOR NZCH
ADDS - METARS form results

(1323 UTC 12 April 2021)
Data provider http://aviationweather.gov/metar/data/
 
METAR text: NZCH 121300Z AUTO 33005KT 290V360 9999 NCD 18/07 Q1001 NOSIG
Conditions at: NZCH (CHRISTCHURCH INT, NZ) observed 1300 UTC 12 April 2021
Temperature: 18.0°C (64°F)
Dewpoint: 7.0°C (45°F) [RH = 49%]
Pressure (altimeter): 29.56 inches Hg (1001.0 mb)
Winds: from the NNW (330 degrees) at 6 MPH (5 knots; 2.6 m/s)
Visibility: 6 or more miles (10+ km)
Ceiling: at least 12,000 feet AGL
Clouds: sky clear below 12,000 feet AGL
Weather: no significant weather observed at this time

METAR text: NZCH 121230Z AUTO 34009KT 300V010 9999 NCD 18/08 Q1001 NOSIG
Conditions at: NZCH (CHRISTCHURCH INT, NZ) observed 1230 UTC 12 April 2021
Temperature: 18.0°C (64°F)
Dewpoint: 8.0°C (46°F) [RH = 52%]
Pressure (altimeter): 29.56 inches Hg (1001.0 mb)
Winds: from the NNW (340 degrees) at 10 MPH (9 knots; 4.6 m/s)
Visibility: 6 or more miles (10+ km)
Ceiling: at least 12,000 feet AGL
Clouds: sky clear below 12,000 feet AGL
Weather: no significant weather observed at this time

Forecast for: NZCH (CHRISTCHURCH INT, NZ)
Text: TAF NZCH 121106Z 1212/1312 VRB02KT CAVOK
Forecast period: 1200 UTC 12 April 2021 to 0000 UTC 13 April 2021
Forecast type: FROM: standard forecast or significant change
Winds: variable direction winds at 2 MPH (2 knots; 1.0 m/s)
Visibility: 6 or more miles (10+ km)
Ceiling: unknown
Clouds: missing
Weather: NSW  (no significant weather)
Text: FM130000 04010KT 9999 BKN070
Forecast period: 0000 to 0200 UTC 13 April 2021
Forecast type: FROM: standard forecast or significant change
Winds: from the NE (40 degrees) at 12 MPH (10 knots; 5.1 m/s)
Visibility: 6 or more miles (10+ km)
Ceiling: 7000 feet AGL
Clouds: broken clouds at 7000 feet AGL
Weather: no significant weather forecast for this period
Text: PROB30
Forecast period: 0000 to 0600 UTC 13 April 2021
Forecast type: TEMPORARY: The following changes expected for less than half the time period
Visibility: 4 miles (6 km)
Ceiling: at least 12,000 feet AGL
Clouds: scattered clouds at 3000 feet AGL
Weather: SHRA  (rain showers)
Text: TEMPO 1300/1306 6000 SHRA SCT030TCU
Forecast period: 0200 to 1200 UTC 13 April 2021
Forecast type: BECOMING: Conditions expected to become as follows by 0400 UTC 13 April 2021
Winds: from the WNW (300 degrees) at 12 MPH (10 knots; 5.1 m/s)
Visibility: 6 or more miles (10+ km)
Ceiling: 7000 feet AGL
Clouds: broken clouds at 7000 feet AGL
Weather: no significant weather forecast for this period

 MAPA DE AEROPUERTO

 INFORMACIÓN DE PISTA